sensor_id;sensor_type;location;lat;lon;timestamp;P1;durP1;ratioP1;P2;durP2;ratioP2
43560;SDS011;32305;46.410;17.394;2022-10-16T00:01:15;7.20;;;5.65;;
43560;SDS011;32305;46.410;17.394;2022-10-16T00:03:44;8.77;;;6.63;;
43560;SDS011;32305;46.410;17.394;2022-10-16T00:06:12;7.15;;;5.65;;
43560;SDS011;32305;46.410;17.394;2022-10-16T00:08:40;7.43;;;5.97;;
43560;SDS011;32305;46.410;17.394;2022-10-16T00:11:15;9.17;;;6.47;;
43560;SDS011;32305;46.410;17.394;2022-10-16T00:13:44;8.80;;;6.47;;
43560;SDS011;32305;46.410;17.394;2022-10-16T00:16:12;7.10;;;5.85;;
43560;SDS011;32305;46.410;17.394;2022-10-16T00:18:40;8.65;;;6.03;;
43560;SDS011;32305;46.410;17.394;2022-10-16T00:21:12;8.00;;;6.28;;
43560;SDS011;32305;46.410;17.394;2022-10-16T00:23:41;6.40;;;5.60;;
43560;SDS011;32305;46.410;17.394;2022-10-16T00:26:11;8.70;;;6.80;;
43560;SDS011;32305;46.410;17.394;2022-10-16T00:28:40;7.55;;;6.05;;
43560;SDS011;32305;46.410;17.394;2022-10-16T00:31:08;7.35;;;6.05;;
43560;SDS011;32305;46.410;17.394;2022-10-16T00:33:37;7.18;;;5.82;;
43560;SDS011;32305;46.410;17.394;2022-10-16T00:36:06;8.48;;;6.57;;
43560;SDS011;32305;46.410;17.394;2022-10-16T00:41:04;6.72;;;5.43;;
43560;SDS011;32305;46.410;17.394;2022-10-16T00:43:47;7.82;;;5.60;;
43560;SDS011;32305;46.410;17.394;2022-10-16T00:46:23;7.20;;;5.63;;
43560;SDS011;32305;46.410;17.394;2022-10-16T00:48:57;9.35;;;6.13;;
43560;SDS011;32305;46.410;17.394;2022-10-16T00:51:43;8.13;;;5.40;;
43560;SDS011;32305;46.410;17.394;2022-10-16T00:54:14;7.75;;;6.20;;
43560;SDS011;32305;46.410;17.394;2022-10-16T00:56:54;8.30;;;6.30;;
43560;SDS011;32305;46.410;17.394;2022-10-16T00:59:25;8.20;;;6.13;;
43560;SDS011;32305;46.410;17.394;2022-10-16T01:01:54;6.72;;;5.60;;
43560;SDS011;32305;46.410;17.394;2022-10-16T01:04:23;7.38;;;5.72;;
43560;SDS011;32305;46.410;17.394;2022-10-16T01:06:56;9.95;;;6.20;;
43560;SDS011;32305;46.410;17.394;2022-10-16T01:09:38;8.43;;;5.55;;
43560;SDS011;32305;46.410;17.394;2022-10-16T01:12:39;8.02;;;5.53;;
43560;SDS011;32305;46.410;17.394;2022-10-16T01:15:23;7.13;;;5.80;;
43560;SDS011;32305;46.410;17.394;2022-10-16T01:18:01;6.97;;;6.05;;
43560;SDS011;32305;46.410;17.394;2022-10-16T01:20:47;8.13;;;5.75;;
43560;SDS011;32305;46.410;17.394;2022-10-16T01:23:25;6.85;;;5.47;;
43560;SDS011;32305;46.410;17.394;2022-10-16T01:26:10;8.90;;;5.97;;
43560;SDS011;32305;46.410;17.394;2022-10-16T01:28:59;7.13;;;5.60;;
43560;SDS011;32305;46.410;17.394;2022-10-16T01:31:38;7.15;;;5.63;;
43560;SDS011;32305;46.410;17.394;2022-10-16T01:34:13;6.72;;;4.93;;
43560;SDS011;32305;46.410;17.394;2022-10-16T01:36:45;8.38;;;5.32;;
43560;SDS011;32305;46.410;17.394;2022-10-16T01:39:25;6.60;;;5.45;;
43560;SDS011;32305;46.410;17.394;2022-10-16T01:42:01;7.03;;;5.15;;
43560;SDS011;32305;46.410;17.394;2022-10-16T01:44:36;6.43;;;5.15;;
43560;SDS011;32305;46.410;17.394;2022-10-16T01:47:05;7.50;;;5.72;;
43560;SDS011;32305;46.410;17.394;2022-10-16T01:49:36;7.25;;;5.68;;
43560;SDS011;32305;46.410;17.394;2022-10-16T01:52:09;7.53;;;5.68;;
43560;SDS011;32305;46.410;17.394;2022-10-16T01:54:42;6.63;;;5.35;;
43560;SDS011;32305;46.410;17.394;2022-10-16T01:57:12;5.55;;;5.00;;
43560;SDS011;32305;46.410;17.394;2022-10-16T01:59:43;6.97;;;5.00;;
43560;SDS011;32305;46.410;17.394;2022-10-16T02:02:14;6.80;;;5.13;;
43560;SDS011;32305;46.410;17.394;2022-10-16T02:04:48;6.28;;;5.20;;
43560;SDS011;32305;46.410;17.394;2022-10-16T02:07:21;6.35;;;4.80;;
43560;SDS011;32305;46.410;17.394;2022-10-16T02:09:48;6.82;;;5.10;;
43560;SDS011;32305;46.410;17.394;2022-10-16T02:12:19;6.25;;;4.68;;
43560;SDS011;32305;46.410;17.394;2022-10-16T02:14:57;6.85;;;5.22;;
43560;SDS011;32305;46.410;17.394;2022-10-16T02:17:24;7.05;;;5.25;;
43560;SDS011;32305;46.410;17.394;2022-10-16T02:19:52;6.10;;;5.05;;
43560;SDS011;32305;46.410;17.394;2022-10-16T02:24:58;8.43;;;5.20;;
43560;SDS011;32305;46.410;17.394;2022-10-16T02:27:43;6.75;;;5.47;;
43560;SDS011;32305;46.410;17.394;2022-10-16T02:30:35;5.50;;;4.57;;
43560;SDS011;32305;46.410;17.394;2022-10-16T02:33:07;7.60;;;5.10;;
43560;SDS011;32305;46.410;17.394;2022-10-16T02:35:36;6.10;;;4.97;;
43560;SDS011;32305;46.410;17.394;2022-10-16T02:38:04;5.82;;;4.57;;
43560;SDS011;32305;46.410;17.394;2022-10-16T02:40:32;5.47;;;4.82;;
43560;SDS011;32305;46.410;17.394;2022-10-16T02:43:00;5.88;;;4.75;;
43560;SDS011;32305;46.410;17.394;2022-10-16T02:45:30;5.10;;;4.50;;
43560;SDS011;32305;46.410;17.394;2022-10-16T02:47:57;6.70;;;4.80;;
43560;SDS011;32305;46.410;17.394;2022-10-16T02:50:24;5.70;;;4.90;;
43560;SDS011;32305;46.410;17.394;2022-10-16T02:52:51;7.85;;;5.10;;
43560;SDS011;32305;46.410;17.394;2022-10-16T02:55:18;7.43;;;4.88;;
43560;SDS011;32305;46.410;17.394;2022-10-16T02:57:45;6.22;;;4.93;;
43560;SDS011;32305;46.410;17.394;2022-10-16T03:00:13;6.85;;;5.00;;
43560;SDS011;32305;46.410;17.394;2022-10-16T03:02:42;6.45;;;4.65;;
43560;SDS011;32305;46.410;17.394;2022-10-16T03:05:09;6.03;;;4.35;;
43560;SDS011;32305;46.410;17.394;2022-10-16T03:07:37;4.93;;;4.38;;
43560;SDS011;32305;46.410;17.394;2022-10-16T03:10:04;5.50;;;4.95;;
43560;SDS011;32305;46.410;17.394;2022-10-16T03:12:32;5.32;;;4.47;;
43560;SDS011;32305;46.410;17.394;2022-10-16T03:14:59;4.97;;;4.18;;
43560;SDS011;32305;46.410;17.394;2022-10-16T03:17:27;4.60;;;4.20;;
43560;SDS011;32305;46.410;17.394;2022-10-16T03:19:54;5.65;;;4.70;;
43560;SDS011;32305;46.410;17.394;2022-10-16T03:22:21;6.78;;;4.72;;
43560;SDS011;32305;46.410;17.394;2022-10-16T03:24:48;5.30;;;4.40;;
43560;SDS011;32305;46.410;17.394;2022-10-16T03:27:15;7.05;;;5.03;;
43560;SDS011;32305;46.410;17.394;2022-10-16T03:29:43;5.00;;;4.50;;
43560;SDS011;32305;46.410;17.394;2022-10-16T03:32:10;5.07;;;4.28;;
43560;SDS011;32305;46.410;17.394;2022-10-16T03:34:37;4.95;;;4.32;;
43560;SDS011;32305;46.410;17.394;2022-10-16T03:37:04;4.93;;;4.28;;
43560;SDS011;32305;46.410;17.394;2022-10-16T03:39:31;7.25;;;4.68;;
43560;SDS011;32305;46.410;17.394;2022-10-16T03:41:58;5.05;;;4.30;;
43560;SDS011;32305;46.410;17.394;2022-10-16T03:44:25;5.72;;;4.72;;
43560;SDS011;32305;46.410;17.394;2022-10-16T03:46:52;5.55;;;4.10;;
43560;SDS011;32305;46.410;17.394;2022-10-16T03:49:19;6.10;;;4.78;;
43560;SDS011;32305;46.410;17.394;2022-10-16T03:51:46;4.32;;;3.92;;
43560;SDS011;32305;46.410;17.394;2022-10-16T03:54:13;5.93;;;4.53;;
43560;SDS011;32305;46.410;17.394;2022-10-16T03:56:40;5.07;;;4.53;;
43560;SDS011;32305;46.410;17.394;2022-10-16T03:59:07;6.47;;;4.35;;
43560;SDS011;32305;46.410;17.394;2022-10-16T04:01:34;4.30;;;3.88;;
43560;SDS011;32305;46.410;17.394;2022-10-16T04:04:01;5.28;;;4.00;;
43560;SDS011;32305;46.410;17.394;2022-10-16T04:06:28;4.88;;;4.22;;
43560;SDS011;32305;46.410;17.394;2022-10-16T04:08:55;4.75;;;4.20;;
43560;SDS011;32305;46.410;17.394;2022-10-16T04:11:22;5.25;;;4.50;;
43560;SDS011;32305;46.410;17.394;2022-10-16T04:13:49;5.18;;;4.43;;
43560;SDS011;32305;46.410;17.394;2022-10-16T04:16:17;6.05;;;4.53;;
43560;SDS011;32305;46.410;17.394;2022-10-16T04:18:44;5.22;;;4.03;;
43560;SDS011;32305;46.410;17.394;2022-10-16T04:21:11;4.68;;;3.80;;
43560;SDS011;32305;46.410;17.394;2022-10-16T04:23:38;4.80;;;4.25;;
43560;SDS011;32305;46.410;17.394;2022-10-16T04:26:05;7.32;;;4.90;;
43560;SDS011;32305;46.410;17.394;2022-10-16T04:28:32;6.10;;;4.20;;
43560;SDS011;32305;46.410;17.394;2022-10-16T04:30:59;5.13;;;4.38;;
43560;SDS011;32305;46.410;17.394;2022-10-16T04:33:26;4.82;;;4.15;;
43560;SDS011;32305;46.410;17.394;2022-10-16T04:35:57;4.82;;;4.28;;
43560;SDS011;32305;46.410;17.394;2022-10-16T04:38:25;5.50;;;4.68;;
43560;SDS011;32305;46.410;17.394;2022-10-16T04:40:52;6.13;;;4.13;;
43560;SDS011;32305;46.410;17.394;2022-10-16T04:43:19;4.97;;;4.43;;
43560;SDS011;32305;46.410;17.394;2022-10-16T04:45:47;6.28;;;4.80;;
43560;SDS011;32305;46.410;17.394;2022-10-16T04:48:17;6.20;;;4.53;;
43560;SDS011;32305;46.410;17.394;2022-10-16T04:50:44;5.32;;;4.47;;
43560;SDS011;32305;46.410;17.394;2022-10-16T04:53:11;4.68;;;4.10;;
43560;SDS011;32305;46.410;17.394;2022-10-16T04:55:38;6.22;;;4.80;;
43560;SDS011;32305;46.410;17.394;2022-10-16T04:58:07;5.45;;;4.72;;
43560;SDS011;32305;46.410;17.394;2022-10-16T05:00:34;6.47;;;5.18;;
43560;SDS011;32305;46.410;17.394;2022-10-16T05:03:02;6.88;;;4.53;;
43560;SDS011;32305;46.410;17.394;2022-10-16T05:05:32;4.85;;;4.32;;
43560;SDS011;32305;46.410;17.394;2022-10-16T05:07:59;5.15;;;4.65;;
43560;SDS011;32305;46.410;17.394;2022-10-16T05:10:27;4.47;;;4.07;;
43560;SDS011;32305;46.410;17.394;2022-10-16T05:12:54;5.60;;;4.63;;
43560;SDS011;32305;46.410;17.394;2022-10-16T05:15:21;4.97;;;4.45;;
43560;SDS011;32305;46.410;17.394;2022-10-16T05:17:54;6.43;;;4.60;;
43560;SDS011;32305;46.410;17.394;2022-10-16T05:20:22;5.20;;;4.70;;
43560;SDS011;32305;46.410;17.394;2022-10-16T05:22:49;5.90;;;4.72;;
43560;SDS011;32305;46.410;17.394;2022-10-16T05:25:16;5.70;;;4.63;;
43560;SDS011;32305;46.410;17.394;2022-10-16T05:27:46;6.28;;;5.10;;
43560;SDS011;32305;46.410;17.394;2022-10-16T05:30:15;5.57;;;4.70;;
43560;SDS011;32305;46.410;17.394;2022-10-16T05:32:47;6.47;;;4.50;;
43560;SDS011;32305;46.410;17.394;2022-10-16T05:35:15;5.32;;;4.82;;
43560;SDS011;32305;46.410;17.394;2022-10-16T05:37:43;5.10;;;4.28;;
43560;SDS011;32305;46.410;17.394;2022-10-16T05:40:10;5.88;;;4.68;;
43560;SDS011;32305;46.410;17.394;2022-10-16T05:42:39;5.80;;;4.65;;
43560;SDS011;32305;46.410;17.394;2022-10-16T05:45:08;4.75;;;4.25;;
43560;SDS011;32305;46.410;17.394;2022-10-16T05:47:38;5.80;;;5.20;;
43560;SDS011;32305;46.410;17.394;2022-10-16T05:50:05;5.30;;;4.55;;
43560;SDS011;32305;46.410;17.394;2022-10-16T05:52:33;6.50;;;5.03;;
43560;SDS011;32305;46.410;17.394;2022-10-16T05:55:00;5.78;;;4.53;;
43560;SDS011;32305;46.410;17.394;2022-10-16T05:57:27;9.63;;;4.90;;
43560;SDS011;32305;46.410;17.394;2022-10-16T05:59:55;5.50;;;4.90;;
43560;SDS011;32305;46.410;17.394;2022-10-16T06:02:22;5.28;;;4.18;;
43560;SDS011;32305;46.410;17.394;2022-10-16T06:04:49;6.72;;;5.15;;
43560;SDS011;32305;46.410;17.394;2022-10-16T06:07:17;4.95;;;4.45;;
43560;SDS011;32305;46.410;17.394;2022-10-16T06:09:47;5.82;;;5.05;;
43560;SDS011;32305;46.410;17.394;2022-10-16T06:12:16;4.95;;;4.45;;
43560;SDS011;32305;46.410;17.394;2022-10-16T06:14:43;7.15;;;4.63;;
43560;SDS011;32305;46.410;17.394;2022-10-16T06:17:11;6.43;;;5.20;;
43560;SDS011;32305;46.410;17.394;2022-10-16T06:19:38;7.50;;;5.30;;
43560;SDS011;32305;46.410;17.394;2022-10-16T06:22:06;5.78;;;4.70;;
43560;SDS011;32305;46.410;17.394;2022-10-16T06:24:33;7.15;;;5.28;;
43560;SDS011;32305;46.410;17.394;2022-10-16T06:27:00;6.30;;;5.07;;
43560;SDS011;32305;46.410;17.394;2022-10-16T06:29:27;6.22;;;4.95;;
43560;SDS011;32305;46.410;17.394;2022-10-16T06:31:54;6.00;;;5.03;;
43560;SDS011;32305;46.410;17.394;2022-10-16T06:34:21;6.47;;;5.63;;
43560;SDS011;32305;46.410;17.394;2022-10-16T06:36:48;6.57;;;5.20;;
43560;SDS011;32305;46.410;17.394;2022-10-16T06:39:15;8.90;;;5.07;;
43560;SDS011;32305;46.410;17.394;2022-10-16T06:41:42;7.05;;;5.72;;
43560;SDS011;32305;46.410;17.394;2022-10-16T06:44:09;6.72;;;5.80;;
43560;SDS011;32305;46.410;17.394;2022-10-16T06:46:36;8.93;;;6.30;;
43560;SDS011;32305;46.410;17.394;2022-10-16T06:49:03;8.95;;;6.13;;
43560;SDS011;32305;46.410;17.394;2022-10-16T06:51:30;6.20;;;5.53;;
43560;SDS011;32305;46.410;17.394;2022-10-16T06:54:04;8.35;;;6.40;;
43560;SDS011;32305;46.410;17.394;2022-10-16T06:56:31;7.05;;;5.90;;
43560;SDS011;32305;46.410;17.394;2022-10-16T06:58:59;9.13;;;6.60;;
43560;SDS011;32305;46.410;17.394;2022-10-16T07:01:27;8.63;;;6.05;;
43560;SDS011;32305;46.410;17.394;2022-10-16T07:03:55;8.55;;;6.20;;
43560;SDS011;32305;46.410;17.394;2022-10-16T07:06:22;11.30;;;7.30;;
43560;SDS011;32305;46.410;17.394;2022-10-16T07:08:51;10.23;;;6.32;;
43560;SDS011;32305;46.410;17.394;2022-10-16T07:11:20;9.20;;;6.88;;
43560;SDS011;32305;46.410;17.394;2022-10-16T07:13:49;8.10;;;6.28;;
43560;SDS011;32305;46.410;17.394;2022-10-16T07:16:22;10.80;;;6.65;;
43560;SDS011;32305;46.410;17.394;2022-10-16T07:18:51;10.25;;;7.55;;
43560;SDS011;32305;46.410;17.394;2022-10-16T07:21:25;8.95;;;6.82;;
43560;SDS011;32305;46.410;17.394;2022-10-16T07:23:57;9.90;;;6.07;;
43560;SDS011;32305;46.410;17.394;2022-10-16T07:26:26;9.75;;;6.85;;
43560;SDS011;32305;46.410;17.394;2022-10-16T07:28:54;10.05;;;6.63;;
43560;SDS011;32305;46.410;17.394;2022-10-16T07:31:21;8.80;;;6.28;;
43560;SDS011;32305;46.410;17.394;2022-10-16T07:33:49;10.02;;;7.32;;
43560;SDS011;32305;46.410;17.394;2022-10-16T07:36:17;12.35;;;7.22;;
43560;SDS011;32305;46.410;17.394;2022-10-16T07:38:45;9.85;;;6.80;;
43560;SDS011;32305;46.410;17.394;2022-10-16T07:41:13;10.90;;;7.60;;
43560;SDS011;32305;46.410;17.394;2022-10-16T07:43:46;8.27;;;6.55;;
43560;SDS011;32305;46.410;17.394;2022-10-16T07:46:14;9.15;;;7.22;;
43560;SDS011;32305;46.410;17.394;2022-10-16T07:48:42;8.82;;;6.18;;
43560;SDS011;32305;46.410;17.394;2022-10-16T07:51:20;12.43;;;7.50;;
43560;SDS011;32305;46.410;17.394;2022-10-16T07:53:48;10.65;;;7.43;;
43560;SDS011;32305;46.410;17.394;2022-10-16T07:56:16;11.20;;;7.85;;
43560;SDS011;32305;46.410;17.394;2022-10-16T07:58:44;8.57;;;6.78;;
43560;SDS011;32305;46.410;17.394;2022-10-16T08:01:12;7.30;;;6.47;;
43560;SDS011;32305;46.410;17.394;2022-10-16T08:03:42;10.50;;;7.87;;
43560;SDS011;32305;46.410;17.394;2022-10-16T08:06:10;9.23;;;7.15;;
43560;SDS011;32305;46.410;17.394;2022-10-16T08:08:37;8.77;;;6.60;;
43560;SDS011;32305;46.410;17.394;2022-10-16T08:11:04;9.48;;;6.85;;
43560;SDS011;32305;46.410;17.394;2022-10-16T08:13:31;10.50;;;7.57;;
43560;SDS011;32305;46.410;17.394;2022-10-16T08:15:59;11.35;;;7.78;;
43560;SDS011;32305;46.410;17.394;2022-10-16T08:18:26;10.25;;;7.32;;
43560;SDS011;32305;46.410;17.394;2022-10-16T08:20:56;9.45;;;7.40;;
43560;SDS011;32305;46.410;17.394;2022-10-16T08:23:25;9.65;;;7.28;;
43560;SDS011;32305;46.410;17.394;2022-10-16T08:25:53;9.93;;;7.55;;
43560;SDS011;32305;46.410;17.394;2022-10-16T08:28:21;9.00;;;7.25;;
43560;SDS011;32305;46.410;17.394;2022-10-16T08:30:49;8.85;;;6.78;;
43560;SDS011;32305;46.410;17.394;2022-10-16T08:33:16;9.25;;;6.60;;
43560;SDS011;32305;46.410;17.394;2022-10-16T08:35:49;17.83;;;7.60;;
43560;SDS011;32305;46.410;17.394;2022-10-16T08:38:18;10.05;;;7.38;;
43560;SDS011;32305;46.410;17.394;2022-10-16T08:40:46;11.05;;;7.32;;
43560;SDS011;32305;46.410;17.394;2022-10-16T08:49:20;8.52;;;7.18;;
43560;SDS011;32305;46.410;17.394;2022-10-16T08:51:50;10.93;;;7.90;;
43560;SDS011;32305;46.410;17.394;2022-10-16T08:54:23;12.20;;;7.95;;
43560;SDS011;32305;46.410;17.394;2022-10-16T08:59:49;8.75;;;7.53;;
43560;SDS011;32305;46.410;17.394;2022-10-16T09:02:21;8.95;;;6.70;;
43560;SDS011;32305;46.410;17.394;2022-10-16T09:05:11;10.93;;;7.75;;
43560;SDS011;32305;46.410;17.394;2022-10-16T09:07:58;10.70;;;8.38;;
43560;SDS011;32305;46.410;17.394;2022-10-16T09:10:42;10.68;;;8.18;;
43560;SDS011;32305;46.410;17.394;2022-10-16T09:13:36;11.63;;;7.78;;
43560;SDS011;32305;46.410;17.394;2022-10-16T09:16:16;9.27;;;7.50;;
43560;SDS011;32305;46.410;17.394;2022-10-16T09:21:57;8.90;;;8.00;;
43560;SDS011;32305;46.410;17.394;2022-10-16T09:24:29;11.68;;;8.25;;
43560;SDS011;32305;46.410;17.394;2022-10-16T09:26:57;8.35;;;7.43;;
43560;SDS011;32305;46.410;17.394;2022-10-16T09:29:24;13.55;;;9.02;;
43560;SDS011;32305;46.410;17.394;2022-10-16T09:31:52;11.55;;;8.25;;
43560;SDS011;32305;46.410;17.394;2022-10-16T09:34:27;10.40;;;7.70;;
43560;SDS011;32305;46.410;17.394;2022-10-16T09:37:01;11.68;;;8.43;;
43560;SDS011;32305;46.410;17.394;2022-10-16T09:39:43;12.18;;;8.60;;
43560;SDS011;32305;46.410;17.394;2022-10-16T09:42:23;9.32;;;7.68;;
43560;SDS011;32305;46.410;17.394;2022-10-16T09:44:57;11.13;;;8.40;;
43560;SDS011;32305;46.410;17.394;2022-10-16T09:47:25;11.07;;;7.53;;
43560;SDS011;32305;46.410;17.394;2022-10-16T09:50:13;12.45;;;8.77;;
43560;SDS011;32305;46.410;17.394;2022-10-16T09:52:48;11.70;;;8.88;;
43560;SDS011;32305;46.410;17.394;2022-10-16T09:55:16;13.82;;;8.18;;
43560;SDS011;32305;46.410;17.394;2022-10-16T09:57:51;10.45;;;7.88;;
43560;SDS011;32305;46.410;17.394;2022-10-16T10:00:19;11.15;;;7.80;;
43560;SDS011;32305;46.410;17.394;2022-10-16T10:02:47;10.55;;;7.80;;
43560;SDS011;32305;46.410;17.394;2022-10-16T10:05:20;8.85;;;7.88;;
43560;SDS011;32305;46.410;17.394;2022-10-16T10:07:55;11.40;;;8.43;;
43560;SDS011;32305;46.410;17.394;2022-10-16T10:10:25;9.38;;;7.82;;
43560;SDS011;32305;46.410;17.394;2022-10-16T10:12:54;8.98;;;7.80;;
43560;SDS011;32305;46.410;17.394;2022-10-16T10:15:23;10.57;;;7.70;;
43560;SDS011;32305;46.410;17.394;2022-10-16T10:17:52;11.65;;;8.68;;
43560;SDS011;32305;46.410;17.394;2022-10-16T10:20:26;12.87;;;8.57;;
43560;SDS011;32305;46.410;17.394;2022-10-16T10:23:01;8.85;;;7.68;;
43560;SDS011;32305;46.410;17.394;2022-10-16T10:28:54;9.48;;;8.25;;
43560;SDS011;32305;46.410;17.394;2022-10-16T10:31:39;9.95;;;8.18;;
43560;SDS011;32305;46.410;17.394;2022-10-16T10:34:42;9.27;;;7.30;;
43560;SDS011;32305;46.410;17.394;2022-10-16T10:37:38;9.85;;;8.25;;
43560;SDS011;32305;46.410;17.394;2022-10-16T10:40:23;13.27;;;9.05;;
43560;SDS011;32305;46.410;17.394;2022-10-16T10:43:19;9.68;;;8.20;;
43560;SDS011;32305;46.410;17.394;2022-10-16T10:45:58;8.63;;;7.80;;
43560;SDS011;32305;46.410;17.394;2022-10-16T10:51:44;13.30;;;8.43;;
43560;SDS011;32305;46.410;17.394;2022-10-16T11:00:39;9.85;;;8.63;;
43560;SDS011;32305;46.410;17.394;2022-10-16T11:03:45;11.93;;;9.30;;
43560;SDS011;32305;46.410;17.394;2022-10-16T11:06:52;11.35;;;8.65;;
43560;SDS011;32305;46.410;17.394;2022-10-16T11:09:26;9.80;;;7.97;;
43560;SDS011;32305;46.410;17.394;2022-10-16T11:12:09;10.85;;;9.13;;
43560;SDS011;32305;46.410;17.394;2022-10-16T11:14:57;12.98;;;9.98;;
43560;SDS011;32305;46.410;17.394;2022-10-16T11:17:35;11.45;;;8.98;;
43560;SDS011;32305;46.410;17.394;2022-10-16T11:20:12;12.60;;;10.02;;
43560;SDS011;32305;46.410;17.394;2022-10-16T11:22:47;11.32;;;8.40;;
43560;SDS011;32305;46.410;17.394;2022-10-16T11:25:28;10.45;;;9.18;;
43560;SDS011;32305;46.410;17.394;2022-10-16T11:30:57;11.77;;;9.40;;
43560;SDS011;32305;46.410;17.394;2022-10-16T11:33:41;10.60;;;9.05;;
43560;SDS011;32305;46.410;17.394;2022-10-16T11:36:40;11.65;;;9.32;;
43560;SDS011;32305;46.410;17.394;2022-10-16T11:39:19;14.48;;;9.63;;
43560;SDS011;32305;46.410;17.394;2022-10-16T11:41:50;12.70;;;10.43;;
43560;SDS011;32305;46.410;17.394;2022-10-16T11:44:34;11.45;;;9.98;;
43560;SDS011;32305;46.410;17.394;2022-10-16T11:47:19;12.48;;;10.35;;
43560;SDS011;32305;46.410;17.394;2022-10-16T11:50:33;12.88;;;9.90;;
43560;SDS011;32305;46.410;17.394;2022-10-16T11:53:39;12.82;;;10.10;;
43560;SDS011;32305;46.410;17.394;2022-10-16T11:56:20;16.05;;;9.23;;
43560;SDS011;32305;46.410;17.394;2022-10-16T12:01:47;13.18;;;10.15;;
43560;SDS011;32305;46.410;17.394;2022-10-16T12:04:26;11.18;;;9.65;;
43560;SDS011;32305;46.410;17.394;2022-10-16T12:07:05;12.07;;;9.80;;
43560;SDS011;32305;46.410;17.394;2022-10-16T12:09:37;12.20;;;9.88;;
43560;SDS011;32305;46.410;17.394;2022-10-16T12:15:17;12.93;;;10.48;;
43560;SDS011;32305;46.410;17.394;2022-10-16T12:18:23;12.20;;;9.93;;
43560;SDS011;32305;46.410;17.394;2022-10-16T12:20:54;13.00;;;10.77;;
43560;SDS011;32305;46.410;17.394;2022-10-16T12:23:31;13.95;;;10.43;;
43560;SDS011;32305;46.410;17.394;2022-10-16T12:25:59;13.60;;;10.43;;
43560;SDS011;32305;46.410;17.394;2022-10-16T12:28:29;11.67;;;10.30;;
43560;SDS011;32305;46.410;17.394;2022-10-16T12:31:02;11.25;;;10.05;;
43560;SDS011;32305;46.410;17.394;2022-10-16T12:33:33;13.25;;;9.98;;
43560;SDS011;32305;46.410;17.394;2022-10-16T12:36:03;13.02;;;10.63;;
43560;SDS011;32305;46.410;17.394;2022-10-16T12:38:38;11.93;;;10.13;;
43560;SDS011;32305;46.410;17.394;2022-10-16T12:41:23;12.40;;;9.77;;
43560;SDS011;32305;46.410;17.394;2022-10-16T12:43:53;11.95;;;10.27;;
43560;SDS011;32305;46.410;17.394;2022-10-16T12:46:35;12.57;;;10.57;;
43560;SDS011;32305;46.410;17.394;2022-10-16T12:49:20;13.85;;;10.57;;
43560;SDS011;32305;46.410;17.394;2022-10-16T12:51:50;18.27;;;10.43;;
43560;SDS011;32305;46.410;17.394;2022-10-16T12:54:31;12.73;;;10.85;;
43560;SDS011;32305;46.410;17.394;2022-10-16T13:00:21;14.38;;;11.02;;
43560;SDS011;32305;46.410;17.394;2022-10-16T13:06:17;12.45;;;10.20;;
43560;SDS011;32305;46.410;17.394;2022-10-16T13:12:18;15.30;;;11.02;;
43560;SDS011;32305;46.410;17.394;2022-10-16T13:18:13;13.50;;;11.35;;
43560;SDS011;32305;46.410;17.394;2022-10-16T13:21:01;11.75;;;10.40;;
43560;SDS011;32305;46.410;17.394;2022-10-16T13:26:57;13.38;;;10.73;;
43560;SDS011;32305;46.410;17.394;2022-10-16T13:32:06;14.50;;;10.93;;
43560;SDS011;32305;46.410;17.394;2022-10-16T13:34:43;12.77;;;11.20;;
43560;SDS011;32305;46.410;17.394;2022-10-16T13:37:19;14.00;;;11.90;;
43560;SDS011;32305;46.410;17.394;2022-10-16T13:39:48;14.23;;;11.73;;
43560;SDS011;32305;46.410;17.394;2022-10-16T13:42:21;14.93;;;11.38;;
43560;SDS011;32305;46.410;17.394;2022-10-16T13:44:55;13.38;;;11.25;;
43560;SDS011;32305;46.410;17.394;2022-10-16T13:47:24;13.43;;;11.07;;
43560;SDS011;32305;46.410;17.394;2022-10-16T13:50:01;15.57;;;11.23;;
43560;SDS011;32305;46.410;17.394;2022-10-16T13:52:36;14.98;;;11.27;;
43560;SDS011;32305;46.410;17.394;2022-10-16T13:55:09;13.40;;;11.02;;
43560;SDS011;32305;46.410;17.394;2022-10-16T13:57:38;13.65;;;10.73;;
43560;SDS011;32305;46.410;17.394;2022-10-16T14:00:21;13.95;;;11.40;;
43560;SDS011;32305;46.410;17.394;2022-10-16T14:02:58;12.63;;;10.77;;
43560;SDS011;32305;46.410;17.394;2022-10-16T14:05:29;14.48;;;11.45;;
43560;SDS011;32305;46.410;17.394;2022-10-16T14:07:57;14.90;;;11.77;;
43560;SDS011;32305;46.410;17.394;2022-10-16T14:10:25;14.10;;;11.90;;
43560;SDS011;32305;46.410;17.394;2022-10-16T14:13:01;12.05;;;10.38;;
43560;SDS011;32305;46.410;17.394;2022-10-16T14:15:31;14.18;;;11.23;;
43560;SDS011;32305;46.410;17.394;2022-10-16T14:18:00;12.30;;;10.88;;
43560;SDS011;32305;46.410;17.394;2022-10-16T14:20:29;14.38;;;11.55;;
43560;SDS011;32305;46.410;17.394;2022-10-16T14:23:03;15.73;;;11.30;;
43560;SDS011;32305;46.410;17.394;2022-10-16T14:25:52;13.55;;;10.95;;
43560;SDS011;32305;46.410;17.394;2022-10-16T14:28:20;12.57;;;10.50;;
43560;SDS011;32305;46.410;17.394;2022-10-16T14:30:56;14.07;;;11.90;;
43560;SDS011;32305;46.410;17.394;2022-10-16T14:33:32;11.98;;;10.30;;
43560;SDS011;32305;46.410;17.394;2022-10-16T14:36:11;15.00;;;11.60;;
43560;SDS011;32305;46.410;17.394;2022-10-16T14:38:41;13.23;;;10.35;;
43560;SDS011;32305;46.410;17.394;2022-10-16T14:41:14;12.70;;;10.50;;
43560;SDS011;32305;46.410;17.394;2022-10-16T14:43:43;13.02;;;10.73;;
43560;SDS011;32305;46.410;17.394;2022-10-16T14:46:18;12.25;;;10.43;;
43560;SDS011;32305;46.410;17.394;2022-10-16T14:48:53;12.48;;;10.52;;
43560;SDS011;32305;46.410;17.394;2022-10-16T14:51:27;17.60;;;11.52;;
43560;SDS011;32305;46.410;17.394;2022-10-16T14:53:54;13.15;;;10.38;;
43560;SDS011;32305;46.410;17.394;2022-10-16T14:56:27;10.73;;;9.60;;
43560;SDS011;32305;46.410;17.394;2022-10-16T14:58:58;12.73;;;10.55;;
43560;SDS011;32305;46.410;17.394;2022-10-16T15:01:26;12.07;;;10.02;;
43560;SDS011;32305;46.410;17.394;2022-10-16T15:03:53;12.15;;;10.30;;
43560;SDS011;32305;46.410;17.394;2022-10-16T15:06:21;14.02;;;10.93;;
43560;SDS011;32305;46.410;17.394;2022-10-16T15:08:48;12.88;;;10.55;;
43560;SDS011;32305;46.410;17.394;2022-10-16T15:11:16;13.00;;;11.07;;
43560;SDS011;32305;46.410;17.394;2022-10-16T15:13:45;11.90;;;9.43;;
43560;SDS011;32305;46.410;17.394;2022-10-16T15:16:14;14.65;;;10.73;;
43560;SDS011;32305;46.410;17.394;2022-10-16T15:18:42;12.98;;;11.52;;
43560;SDS011;32305;46.410;17.394;2022-10-16T15:21:24;12.20;;;9.55;;
43560;SDS011;32305;46.410;17.394;2022-10-16T15:23:56;13.95;;;10.55;;
43560;SDS011;32305;46.410;17.394;2022-10-16T15:26:25;12.02;;;10.07;;
43560;SDS011;32305;46.410;17.394;2022-10-16T15:28:53;13.75;;;11.10;;
43560;SDS011;32305;46.410;17.394;2022-10-16T15:31:21;12.82;;;10.05;;
43560;SDS011;32305;46.410;17.394;2022-10-16T15:33:52;12.30;;;10.65;;
43560;SDS011;32305;46.410;17.394;2022-10-16T15:36:26;13.68;;;10.65;;
43560;SDS011;32305;46.410;17.394;2022-10-16T15:39:03;12.27;;;10.65;;
43560;SDS011;32305;46.410;17.394;2022-10-16T15:41:31;12.40;;;9.77;;
43560;SDS011;32305;46.410;17.394;2022-10-16T15:43:59;13.15;;;11.05;;
43560;SDS011;32305;46.410;17.394;2022-10-16T15:46:26;10.60;;;9.43;;
43560;SDS011;32305;46.410;17.394;2022-10-16T15:48:55;12.48;;;10.10;;
43560;SDS011;32305;46.410;17.394;2022-10-16T15:51:24;12.18;;;9.68;;
43560;SDS011;32305;46.410;17.394;2022-10-16T15:53:53;13.05;;;10.20;;